createdAt,value
2022-10-17T00:01:01.055Z,30.13
2022-10-17T00:02:03.172Z,34.77
2022-10-17T00:03:05.530Z,38.55
2022-10-17T00:04:07.609Z,36.76
2022-10-17T00:05:09.480Z,37.06
2022-10-17T00:06:14.067Z,37.47
2022-10-17T00:07:15.995Z,38.06
2022-10-17T00:08:18.597Z,38.09
2022-10-17T00:09:20.679Z,33.65
2022-10-17T00:10:23.075Z,36.59
2022-10-17T00:11:24.956Z,35.31
2022-10-17T00:12:27.299Z,34.24
2022-10-17T00:13:30.322Z,36.43
2022-10-17T00:14:32.553Z,34.33
2022-10-17T00:15:34.748Z,36.59
2022-10-17T00:16:37.056Z,34.95
2022-10-17T00:17:39.064Z,32.97
2022-10-17T00:18:40.977Z,35.37
2022-10-17T00:19:43.120Z,36.69
2022-10-17T00:20:45.439Z,32.48
2022-10-17T00:21:48.873Z,34.63
2022-10-17T00:22:51.475Z,35.31
2022-10-17T00:23:54.979Z,37.28
2022-10-17T00:24:57.179Z,28.54
2022-10-17T00:26:05.000Z,30.93
2022-10-17T00:27:07.127Z,34.22
2022-10-17T00:29:21.509Z,34.09
2022-10-17T00:30:23.820Z,35.36
2022-10-17T00:31:25.943Z,39.01
2022-10-17T00:32:28.275Z,37.54
2022-10-17T00:33:31.646Z,36.39
2022-10-17T00:34:33.808Z,38.33
2022-10-17T00:35:35.723Z,35.99
2022-10-17T00:36:37.912Z,32.91
2022-10-17T00:37:40.153Z,35.08
2022-10-17T00:38:44.389Z,38.49
2022-10-17T00:39:46.328Z,41.02
2022-10-17T00:40:48.495Z,32.89
2022-10-17T00:41:50.760Z,34.78
2022-10-17T00:42:52.826Z,36.75
2022-10-17T00:44:01.079Z,35.37
2022-10-17T00:45:06.905Z,33.58
2022-10-17T00:46:09.025Z,36.76
2022-10-17T00:47:17.658Z,35.52
2022-10-17T00:48:23.311Z,34.88
2022-10-17T00:49:27.966Z,40.57
2022-10-17T00:50:30.751Z,37.74
2022-10-17T00:51:48.693Z,32.45
2022-10-17T00:52:52.221Z,34.37
2022-10-17T00:53:55.595Z,33.75
2022-10-17T00:55:03.923Z,31.93
2022-10-17T00:56:06.759Z,33.09
2022-10-17T00:57:10.207Z,31.61
2022-10-17T00:58:12.863Z,29.98
2022-10-17T00:59:17.010Z,33.60
2022-10-17T01:00:19.942Z,32.15
2022-10-17T01:01:22.907Z,33.49
2022-10-17T01:02:25.092Z,29.94
2022-10-17T01:03:27.497Z,30.97
2022-10-17T01:04:29.587Z,37.89
2022-10-17T01:05:31.774Z,33.03
2022-10-17T01:06:33.847Z,31.41
2022-10-17T01:07:37.538Z,32.68
2022-10-17T01:08:40.086Z,31.16
2022-10-17T01:09:44.497Z,32.75
2022-10-17T01:11:08.912Z,28.34
2022-10-17T01:12:26.437Z,30.19
2022-10-17T01:13:35.406Z,29.89
2022-10-17T01:15:03.570Z,32.62
2022-10-17T01:16:26.123Z,28.82
2022-10-17T01:17:57.747Z,30.18
2022-10-17T01:19:15.025Z,28.88
2022-10-17T01:23:08.548Z,29.92
2022-10-17T01:24:31.655Z,31.16
2022-10-17T01:25:52.763Z,31.60
2022-10-17T01:27:04.142Z,29.53
2022-10-17T01:28:27.921Z,31.10
2022-10-17T01:29:33.688Z,30.97
2022-10-17T01:30:59.075Z,29.27
2022-10-17T01:32:16.826Z,30.90
2022-10-17T01:33:31.300Z,30.48
2022-10-17T01:37:09.960Z,32.16
2022-10-17T01:40:53.171Z,36.14
2022-10-17T01:42:01.873Z,32.79
2022-10-17T01:43:16.458Z,29.14
2022-10-17T01:44:31.183Z,30.67
2022-10-17T01:45:42.790Z,35.27
2022-10-17T01:46:48.666Z,31.97
2022-10-17T01:47:53.765Z,27.05
2022-10-17T01:48:59.478Z,29.86
2022-10-17T01:50:14.463Z,29.94
2022-10-17T01:51:20.127Z,29.33
2022-10-17T01:52:28.525Z,29.09
2022-10-17T01:53:37.084Z,31.41
2022-10-17T01:54:42.855Z,29.91
2022-10-17T01:55:47.397Z,34.17
2022-10-17T01:56:53.340Z,29.66
2022-10-17T01:57:59.187Z,32.29
2022-10-17T02:00:21.317Z,29.94
2022-10-17T02:01:26.030Z,34.39
2022-10-17T02:02:28.829Z,35.28
2022-10-17T02:03:32.830Z,33.60
2022-10-17T02:04:35.997Z,33.04
2022-10-17T02:05:40.904Z,33.29
2022-10-17T02:06:43.246Z,31.81
2022-10-17T02:07:45.181Z,39.12
2022-10-17T02:08:49.623Z,34.60
2022-10-17T02:09:52.015Z,32.29
2022-10-17T02:11:03.553Z,36.11
2022-10-17T02:14:05.128Z,32.66
2022-10-17T02:15:26.252Z,35.04
2022-10-17T02:16:32.184Z,32.81
2022-10-17T02:17:50.051Z,30.49
2022-10-17T02:19:01.709Z,33.44
2022-10-17T02:20:07.805Z,33.56
2022-10-17T02:21:22.601Z,29.22
2022-10-17T02:22:31.288Z,32.23
2022-10-17T02:23:43.212Z,29.27
2022-10-17T02:25:01.053Z,28.70
2022-10-17T02:26:12.655Z,32.28
2022-10-17T02:28:22.094Z,26.71
2022-10-17T02:29:27.825Z,33.22
2022-10-17T02:30:53.467Z,28.89
2022-10-17T02:32:02.062Z,26.91
2022-10-17T02:33:10.768Z,31.72
2022-10-17T02:34:28.641Z,33.11
2022-10-17T02:37:49.487Z,28.54
2022-10-17T02:38:53.831Z,32.06
2022-10-17T02:39:59.456Z,28.51
2022-10-17T02:41:03.032Z,39.51
2022-10-17T02:42:08.414Z,35.29
2022-10-17T02:43:11.100Z,30.15
2022-10-17T02:44:14.212Z,29.60
2022-10-17T02:45:17.093Z,29.53
2022-10-17T02:46:22.834Z,31.65
2022-10-17T02:47:34.544Z,30.84
2022-10-17T02:48:39.849Z,32.04
2022-10-17T02:49:45.542Z,29.31
2022-10-17T02:50:54.055Z,33.70
2022-10-17T02:52:02.611Z,37.08
2022-10-17T02:53:08.275Z,30.27
2022-10-17T02:54:39.980Z,28.60
2022-10-17T02:55:51.720Z,27.98
2022-10-17T02:57:13.079Z,31.82
2022-10-17T02:58:24.754Z,29.23
2022-10-17T02:59:30.122Z,31.31
2022-10-17T03:00:33.989Z,28.64
2022-10-17T03:01:36.273Z,32.22
2022-10-17T03:02:44.137Z,30.45
2022-10-17T03:03:46.428Z,32.91
2022-10-17T03:04:48.669Z,31.07
2022-10-17T03:05:51.334Z,32.02
2022-10-17T03:06:53.605Z,34.41
2022-10-17T03:07:56.473Z,34.13
2022-10-17T03:08:58.365Z,35.14
2022-10-17T03:10:00.362Z,32.53
2022-10-17T03:11:02.642Z,34.00
2022-10-17T03:12:05.263Z,33.75
2022-10-17T03:13:07.270Z,32.95
2022-10-17T03:14:09.474Z,29.94
2022-10-17T03:15:12.518Z,32.89
2022-10-17T03:16:14.757Z,29.99
2022-10-17T03:17:17.290Z,31.54
2022-10-17T03:18:19.172Z,33.18
2022-10-17T03:19:21.243Z,32.58
2022-10-17T03:20:23.276Z,31.74
2022-10-17T03:21:25.174Z,34.72
2022-10-17T03:22:27.401Z,31.66
2022-10-17T03:23:29.560Z,37.31
2022-10-17T03:24:31.442Z,34.56
2022-10-17T03:25:33.448Z,34.56
2022-10-17T03:26:35.575Z,31.72
2022-10-17T03:27:37.868Z,34.49
2022-10-17T03:28:40.116Z,32.35
2022-10-17T03:29:42.284Z,32.56
2022-10-17T03:30:44.293Z,33.03
2022-10-17T03:31:46.175Z,32.26
2022-10-17T03:32:48.087Z,32.17
2022-10-17T03:33:49.980Z,34.23
2022-10-17T03:34:51.884Z,37.41
2022-10-17T03:36:00.517Z,31.27
2022-10-17T03:37:02.512Z,29.41
2022-10-17T03:38:05.648Z,32.14
2022-10-17T03:39:07.738Z,30.39
2022-10-17T03:40:10.909Z,28.02
2022-10-17T03:41:13.044Z,29.89
2022-10-17T03:42:14.923Z,30.52
2022-10-17T03:43:16.910Z,30.24
2022-10-17T03:44:20.683Z,30.82
2022-10-17T03:45:22.662Z,36.37
2022-10-17T03:46:29.619Z,45.91
2022-10-17T03:47:32.500Z,54.66
2022-10-17T03:48:34.873Z,48.21
2022-10-17T03:49:36.766Z,49.18
2022-10-17T03:50:38.951Z,49.51
2022-10-17T03:51:42.846Z,46.79
2022-10-17T03:52:48.761Z,48.60
2022-10-17T03:53:52.698Z,43.13
2022-10-17T03:54:54.700Z,44.41
2022-10-17T03:56:00.980Z,34.99
2022-10-17T03:57:05.016Z,40.44
2022-10-17T03:58:07.247Z,39.44
2022-10-17T03:59:12.667Z,40.58
2022-10-17T04:00:17.139Z,37.41
2022-10-17T04:01:21.079Z,36.65
2022-10-17T04:02:23.444Z,31.61
2022-10-17T04:03:27.539Z,33.01
2022-10-17T04:04:29.505Z,30.13
2022-10-17T04:05:31.863Z,31.33
2022-10-17T04:06:35.273Z,32.65
2022-10-17T04:07:39.908Z,30.92
2022-10-17T04:08:42.358Z,26.92
2022-10-17T04:09:45.550Z,28.37
2022-10-17T04:10:49.479Z,29.83
2022-10-17T04:11:51.657Z,28.92
2022-10-17T04:13:02.668Z,23.70
2022-10-17T04:14:05.391Z,25.16
2022-10-17T04:15:08.760Z,30.65
2022-10-17T04:16:16.265Z,23.19
2022-10-17T04:17:18.360Z,28.83
2022-10-17T04:18:20.390Z,25.75
2022-10-17T04:19:22.275Z,28.15
2022-10-17T04:20:24.276Z,27.25
2022-10-17T04:21:28.998Z,30.79
2022-10-17T04:22:32.686Z,25.82
2022-10-17T04:23:35.124Z,28.11
2022-10-17T04:24:37.016Z,30.74
2022-10-17T04:25:38.921Z,31.85
2022-10-17T04:26:41.046Z,31.22
2022-10-17T04:27:42.940Z,29.75
2022-10-17T04:28:44.815Z,33.56
2022-10-17T04:29:46.815Z,28.11
2022-10-17T04:31:01.187Z,26.34
2022-10-17T04:32:03.520Z,29.07
2022-10-17T04:33:05.608Z,25.27
2022-10-17T04:34:07.563Z,24.00
2022-10-17T04:35:09.571Z,23.94
2022-10-17T04:36:15.910Z,22.97
2022-10-17T04:37:17.940Z,21.19
2022-10-17T04:38:20.704Z,25.47
2022-10-17T04:39:23.780Z,23.92
2022-10-17T04:40:25.786Z,23.03
2022-10-17T04:41:27.683Z,27.70
2022-10-17T04:42:32.953Z,23.77
2022-10-17T04:43:36.607Z,20.25
2022-10-17T04:44:38.571Z,22.68
2022-10-17T04:45:40.577Z,22.05
2022-10-17T04:46:42.680Z,24.67
2022-10-17T04:47:44.609Z,25.14
2022-10-17T04:48:48.445Z,31.07
2022-10-17T04:49:50.630Z,25.00
2022-10-17T04:50:58.274Z,22.13
2022-10-17T04:52:00.263Z,22.22
2022-10-17T04:53:02.323Z,24.87
2022-10-17T04:54:04.505Z,25.09
2022-10-17T04:55:07.325Z,24.21
2022-10-17T04:56:16.353Z,22.21
2022-10-17T04:57:19.498Z,23.36
2022-10-17T04:58:21.989Z,26.81
2022-10-17T04:59:23.896Z,25.49
2022-10-17T05:00:25.882Z,26.03
2022-10-17T05:01:27.930Z,22.71
2022-10-17T05:02:30.206Z,23.87
2022-10-17T05:03:33.906Z,22.65
2022-10-17T05:04:36.010Z,22.24
2022-10-17T05:05:41.703Z,20.01
2022-10-17T05:06:43.827Z,23.17
2022-10-17T05:07:45.783Z,25.01
2022-10-17T05:08:47.869Z,21.01
2022-10-17T05:09:49.740Z,20.65
2022-10-17T05:10:51.800Z,24.00
2022-10-17T05:11:54.103Z,23.63
2022-10-17T05:12:56.212Z,20.81
2022-10-17T05:14:00.229Z,23.31
2022-10-17T05:15:02.121Z,20.66
2022-10-17T05:16:04.733Z,20.66
2022-10-17T05:17:06.674Z,22.53
2022-10-17T05:18:08.570Z,20.95
2022-10-17T05:19:12.706Z,19.42
2022-10-17T05:20:15.293Z,19.52
2022-10-17T05:21:17.491Z,19.33
2022-10-17T05:22:19.510Z,20.48
2022-10-17T05:23:22.258Z,22.31
2022-10-17T05:24:24.142Z,20.51
2022-10-17T05:25:26.197Z,20.03
2022-10-17T05:26:28.193Z,18.97
2022-10-17T05:27:30.100Z,19.09
2022-10-17T05:28:33.353Z,22.47
2022-10-17T05:29:35.323Z,19.74
2022-10-17T05:30:37.721Z,21.13
2022-10-17T05:33:54.397Z,18.84
2022-10-17T05:34:56.423Z,18.62
2022-10-17T05:35:59.181Z,23.95
2022-10-17T05:37:01.279Z,21.56
2022-10-17T05:38:03.221Z,32.27
2022-10-17T05:39:05.143Z,31.89
2022-10-17T05:40:08.351Z,38.21
2022-10-17T05:41:10.397Z,36.73
2022-10-17T05:42:14.938Z,28.01
2022-10-17T05:43:17.426Z,26.52
2022-10-17T05:44:19.520Z,22.37
2022-10-17T05:45:21.784Z,18.57
2022-10-17T05:46:23.767Z,17.29
2022-10-17T05:47:25.875Z,18.05
2022-10-17T05:48:27.790Z,17.51
2022-10-17T05:49:43.963Z,19.62
2022-10-17T05:50:34.523Z,18.01
2022-10-17T05:51:36.489Z,16.72
2022-10-17T05:52:38.573Z,17.84
2022-10-17T05:53:41.318Z,18.29
2022-10-17T05:54:43.492Z,18.67
2022-10-17T05:55:45.425Z,18.26
2022-10-17T05:56:52.918Z,18.64
2022-10-17T05:57:54.837Z,18.86
2022-10-17T05:59:01.004Z,19.43
2022-10-17T06:00:01.710Z,19.77
2022-10-17T06:01:07.129Z,20.64
2022-10-17T06:02:12.497Z,20.76
2022-10-17T06:03:14.750Z,18.61
2022-10-17T06:04:17.199Z,21.99
2022-10-17T06:05:19.763Z,17.74
2022-10-17T06:06:22.295Z,20.38
2022-10-17T06:07:24.201Z,21.50
2022-10-17T06:08:26.087Z,18.57
2022-10-17T06:09:28.427Z,21.88
2022-10-17T06:10:30.427Z,21.92
2022-10-17T06:11:32.505Z,20.13
2022-10-17T06:12:34.408Z,19.45
2022-10-17T06:13:36.695Z,17.14
2022-10-17T06:14:38.585Z,20.19
2022-10-17T06:15:40.462Z,20.77
2022-10-17T06:16:42.477Z,19.49
2022-10-17T06:17:44.483Z,21.63
2022-10-17T06:18:46.397Z,19.37
2022-10-17T06:19:48.435Z,20.30
2022-10-17T06:20:50.424Z,16.95
2022-10-17T06:21:52.400Z,22.06
2022-10-17T06:22:55.036Z,18.37
2022-10-17T06:23:56.952Z,19.84
2022-10-17T06:24:58.829Z,20.38
2022-10-17T06:26:02.860Z,20.46
2022-10-17T06:27:09.339Z,19.11
2022-10-17T06:28:08.719Z,16.79
2022-10-17T06:29:10.717Z,23.87
2022-10-17T06:30:13.767Z,14.38
2022-10-17T06:31:16.936Z,14.63
2022-10-17T06:32:19.113Z,15.24
2022-10-17T06:33:21.549Z,15.42
2022-10-17T06:34:23.637Z,19.23
2022-10-17T06:35:25.528Z,14.63
2022-10-17T06:36:27.512Z,15.85
2022-10-17T06:37:36.452Z,15.05
2022-10-17T06:38:37.778Z,15.21
2022-10-17T06:39:39.671Z,16.79
2022-10-17T06:40:41.667Z,16.90
2022-10-17T06:41:43.809Z,16.91
2022-10-17T06:42:45.767Z,19.69
2022-10-17T06:43:48.179Z,15.69
2022-10-17T06:44:50.150Z,18.11
2022-10-17T06:45:52.061Z,21.39
2022-10-17T06:46:54.425Z,15.03
2022-10-17T06:47:56.300Z,15.17
2022-10-17T06:48:58.176Z,13.57
2022-10-17T06:50:00.059Z,17.22
2022-10-17T06:51:04.057Z,18.96
2022-10-17T06:52:06.098Z,23.50
2022-10-17T06:53:08.055Z,18.35
2022-10-17T06:54:09.933Z,19.77
2022-10-17T06:55:12.029Z,15.59
2022-10-17T06:56:14.714Z,24.14
2022-10-17T06:57:17.421Z,17.41
2022-10-17T06:58:19.416Z,25.01
2022-10-17T06:59:22.149Z,17.04
2022-10-17T07:00:24.412Z,20.84
2022-10-17T07:01:26.356Z,18.33
2022-10-17T07:02:28.566Z,17.09
2022-10-17T07:03:31.768Z,17.65
2022-10-17T07:04:33.676Z,19.39
2022-10-17T07:05:35.555Z,20.61
2022-10-17T07:06:38.065Z,18.15
2022-10-17T07:07:43.116Z,16.16
2022-10-17T07:08:45.216Z,15.10
2022-10-17T07:09:47.135Z,17.93
2022-10-17T07:10:50.108Z,13.36
2022-10-17T07:11:54.017Z,10.61
2022-10-17T07:12:55.955Z,12.79
2022-10-17T07:13:58.061Z,14.53
2022-10-17T07:15:00.064Z,13.13
2022-10-17T07:16:02.454Z,11.23
2022-10-17T07:17:04.597Z,13.95
2022-10-17T07:18:06.986Z,12.57
2022-10-17T07:19:08.951Z,12.21
2022-10-17T07:20:12.103Z,16.71
2022-10-17T07:21:14.105Z,12.84
2022-10-17T07:22:16.123Z,16.03
2022-10-17T07:23:21.100Z,13.09
2022-10-17T07:24:23.274Z,15.54
2022-10-17T07:25:25.518Z,22.89
2022-10-17T07:26:27.964Z,16.11
2022-10-17T07:27:30.273Z,14.35
2022-10-17T07:28:38.157Z,15.37
2022-10-17T07:29:40.531Z,17.04
2022-10-17T07:30:42.916Z,11.71
2022-10-17T07:31:45.269Z,14.62
2022-10-17T07:32:47.458Z,17.90
2022-10-17T07:33:49.934Z,17.75
2022-10-17T07:34:52.141Z,14.44
2022-10-17T07:35:54.025Z,12.43
2022-10-17T07:36:56.607Z,11.78
2022-10-17T07:37:58.528Z,14.63
2022-10-17T07:39:00.605Z,19.67
2022-10-17T07:40:03.638Z,16.41
2022-10-17T07:41:07.549Z,15.89
2022-10-17T07:42:09.630Z,12.83
2022-10-17T07:43:11.666Z,13.15
2022-10-17T07:44:13.591Z,12.05
2022-10-17T07:45:15.494Z,13.77
2022-10-17T07:46:17.597Z,13.36
2022-10-17T07:47:20.309Z,15.55
2022-10-17T07:48:23.676Z,14.82
2022-10-17T07:49:25.588Z,11.49
2022-10-17T07:50:28.926Z,14.03
2022-10-17T07:51:31.159Z,14.13
2022-10-17T07:52:33.554Z,12.90
2022-10-17T07:53:37.443Z,21.01
2022-10-17T07:54:39.752Z,13.96
2022-10-17T07:55:42.457Z,11.41
2022-10-17T07:56:44.598Z,16.32
2022-10-17T07:57:46.488Z,15.91
2022-10-17T07:58:48.467Z,12.92
2022-10-17T07:59:50.711Z,16.41
2022-10-17T08:00:52.881Z,14.34
2022-10-17T08:01:59.274Z,11.29
2022-10-17T08:03:01.291Z,11.68
2022-10-17T08:04:03.421Z,14.07
2022-10-17T08:05:06.160Z,11.49
2022-10-17T08:06:08.145Z,15.93
2022-10-17T08:07:19.572Z,11.45
2022-10-17T08:08:17.530Z,15.49
2022-10-17T08:09:18.558Z,11.14
2022-10-17T08:10:21.792Z,9.65
2022-10-17T08:11:23.958Z,13.38
2022-10-17T08:12:27.179Z,15.76
2022-10-17T08:13:29.507Z,17.71
2022-10-17T08:14:31.645Z,14.67
2022-10-17T08:15:33.541Z,9.64
2022-10-17T08:16:36.035Z,14.31
2022-10-17T08:17:38.936Z,11.01
2022-10-17T08:18:42.655Z,9.13
2022-10-17T08:19:44.587Z,13.83
2022-10-17T08:20:46.610Z,11.25
2022-10-17T08:22:59.838Z,9.58
2022-10-17T08:24:01.731Z,11.37
2022-10-17T08:25:04.962Z,11.49
2022-10-17T08:26:08.504Z,12.76
2022-10-17T08:27:10.447Z,9.66
2022-10-17T08:28:12.406Z,9.09
2022-10-17T08:29:15.915Z,10.09
2022-10-17T08:30:18.026Z,7.02
2022-10-17T08:31:20.704Z,9.24
2022-10-17T08:32:25.974Z,11.43
2022-10-17T08:33:27.903Z,9.63
2022-10-17T08:34:29.819Z,9.55
2022-10-17T08:35:31.710Z,7.83
2022-10-17T08:36:33.893Z,9.30
2022-10-17T08:37:36.073Z,10.12
2022-10-17T08:38:40.365Z,10.39
2022-10-17T08:39:42.555Z,12.81
2022-10-17T08:40:48.159Z,11.76
2022-10-17T08:42:24.394Z,10.24
2022-10-17T08:43:53.205Z,10.91
2022-10-17T08:45:15.870Z,10.21
2022-10-17T08:46:20.029Z,8.13
2022-10-17T08:48:48.698Z,10.09
2022-10-17T08:49:54.363Z,7.93
2022-10-17T08:51:03.257Z,12.78
2022-10-17T08:52:08.947Z,17.37
2022-10-17T08:53:32.788Z,12.86
2022-10-17T08:55:54.045Z,9.37
2022-10-17T08:56:56.914Z,14.08
2022-10-17T08:57:59.409Z,9.96
2022-10-17T08:59:08.126Z,14.01
2022-10-17T09:00:14.588Z,12.04
2022-10-17T09:01:26.566Z,10.98
2022-10-17T09:02:37.876Z,10.35
2022-10-17T09:04:56.521Z,10.25
2022-10-17T09:06:07.987Z,8.97
2022-10-17T09:07:13.669Z,7.16
2022-10-17T09:08:34.599Z,8.62
2022-10-17T09:09:40.351Z,8.68
2022-10-17T09:10:46.122Z,12.44
2022-10-17T09:11:58.022Z,10.99
2022-10-17T09:13:06.981Z,18.08
2022-10-17T09:14:31.229Z,16.30
2022-10-17T09:16:01.585Z,11.00
2022-10-17T09:17:19.545Z,8.77
2022-10-17T09:18:28.049Z,8.21
2022-10-17T09:19:42.474Z,9.02
2022-10-17T09:20:51.025Z,9.62
2022-10-17T09:21:59.791Z,10.54
2022-10-17T09:24:21.743Z,6.51
2022-10-17T09:25:25.240Z,7.07
2022-10-17T09:26:28.050Z,6.57
2022-10-17T09:27:33.688Z,8.49
2022-10-17T09:28:38.229Z,8.82
2022-10-17T09:29:44.033Z,7.78
2022-10-17T09:30:55.416Z,8.14
2022-10-17T09:32:03.972Z,8.90
2022-10-17T09:33:28.436Z,8.47
2022-10-17T09:34:26.683Z,5.68
2022-10-17T09:35:28.946Z,5.51
2022-10-17T09:36:36.047Z,9.45
2022-10-17T09:37:38.453Z,9.58
2022-10-17T09:38:43.187Z,8.86
2022-10-17T09:39:45.768Z,6.60
2022-10-17T09:40:56.954Z,8.00
2022-10-17T09:42:00.854Z,7.14
2022-10-17T09:43:05.199Z,6.33
2022-10-17T09:44:16.688Z,6.28
2022-10-17T09:45:21.649Z,13.36
2022-10-17T09:46:35.822Z,7.64
2022-10-17T09:50:24.078Z,7.27
2022-10-17T09:51:26.874Z,6.56
2022-10-17T09:52:35.771Z,6.39
2022-10-17T09:53:40.675Z,7.42
2022-10-17T09:54:49.497Z,8.19
2022-10-17T09:55:58.261Z,8.88
2022-10-17T09:57:03.930Z,7.16
2022-10-17T09:58:07.813Z,8.08
2022-10-17T09:59:13.932Z,6.54
2022-10-17T10:00:22.465Z,6.73
2022-10-17T10:01:27.579Z,8.57
2022-10-17T10:02:31.071Z,6.73
2022-10-17T10:03:33.410Z,5.54
2022-10-17T10:04:41.544Z,6.57
2022-10-17T10:05:41.110Z,8.73
2022-10-17T10:07:04.341Z,6.83
2022-10-17T10:08:18.308Z,9.18
2022-10-17T10:09:23.184Z,7.91
2022-10-17T10:10:28.173Z,8.03
2022-10-17T10:11:49.236Z,8.02
2022-10-17T10:13:16.524Z,9.02
2022-10-17T10:14:34.828Z,19.28
2022-10-17T10:15:39.786Z,20.93
2022-10-17T10:16:44.656Z,19.32
2022-10-17T10:17:46.732Z,18.81
2022-10-17T10:18:50.966Z,16.31
2022-10-17T10:19:53.716Z,26.93
2022-10-17T10:21:08.263Z,20.80
2022-10-17T10:22:15.927Z,16.34
2022-10-17T10:23:18.940Z,16.47
2022-10-17T10:24:20.843Z,15.99
2022-10-17T10:25:22.911Z,9.49
2022-10-17T10:26:28.616Z,9.15
2022-10-17T10:27:30.787Z,8.07
2022-10-17T10:28:35.644Z,16.18
2022-10-17T10:29:43.402Z,7.10
2022-10-17T10:30:48.838Z,10.21
2022-10-17T10:31:52.867Z,6.58
2022-10-17T10:32:58.151Z,10.11
2022-10-17T10:34:03.091Z,8.32
2022-10-17T10:35:23.286Z,8.49
2022-10-17T10:36:27.795Z,6.33
2022-10-17T10:37:39.358Z,7.89
2022-10-17T10:38:41.965Z,7.03
2022-10-17T10:39:50.819Z,7.68
2022-10-17T10:40:57.324Z,8.34
2022-10-17T10:42:02.369Z,5.76
2022-10-17T10:43:05.973Z,8.07
2022-10-17T10:44:11.626Z,11.01
2022-10-17T10:45:46.443Z,7.31
2022-10-17T10:46:28.191Z,8.99
2022-10-17T10:47:32.511Z,9.91
2022-10-17T10:48:36.426Z,8.86
2022-10-17T10:49:38.909Z,8.75
2022-10-17T10:52:03.281Z,12.14
2022-10-17T10:53:09.068Z,7.45
2022-10-17T10:54:17.520Z,7.34
2022-10-17T10:55:32.127Z,9.71
2022-10-17T10:56:43.678Z,9.58
2022-10-17T10:57:48.850Z,13.07
2022-10-17T10:59:10.128Z,9.24
2022-10-17T11:00:16.635Z,8.25
2022-10-17T11:01:25.003Z,8.53
2022-10-17T11:02:39.427Z,8.60
2022-10-17T11:04:03.361Z,11.80
2022-10-17T11:05:15.425Z,8.07
2022-10-17T11:06:21.704Z,8.63
2022-10-17T11:07:33.498Z,10.21
2022-10-17T11:08:44.939Z,11.95
2022-10-17T11:10:12.304Z,18.53
2022-10-17T11:11:20.911Z,9.28
2022-10-17T11:12:32.849Z,7.91
2022-10-17T11:13:44.680Z,9.94
2022-10-17T11:15:02.653Z,6.76
2022-10-17T11:16:43.546Z,7.67
2022-10-17T11:17:52.217Z,9.78
2022-10-17T11:19:16.212Z,7.86
2022-10-17T11:20:25.585Z,14.31
2022-10-17T11:22:51.378Z,9.45
2022-10-17T11:23:59.799Z,17.06
2022-10-17T11:25:24.086Z,38.59
2022-10-17T11:26:29.768Z,22.41
2022-10-17T11:27:33.734Z,11.73
2022-10-17T11:28:36.039Z,17.20
2022-10-17T11:29:41.504Z,16.49
2022-10-17T11:30:47.312Z,12.32
2022-10-17T11:31:53.257Z,16.19
2022-10-17T11:32:59.309Z,12.46
2022-10-17T11:34:04.983Z,7.64
2022-10-17T11:35:29.026Z,8.84
2022-10-17T11:36:35.119Z,9.79
2022-10-17T11:37:40.931Z,10.72
2022-10-17T11:38:46.936Z,8.48
2022-10-17T11:40:05.204Z,8.77
2022-10-17T11:41:13.769Z,10.76
2022-10-17T11:42:22.470Z,10.87
2022-10-17T11:43:34.035Z,15.78
2022-10-17T11:44:38.926Z,15.84
2022-10-17T11:45:44.764Z,15.75
2022-10-17T11:46:50.582Z,12.92
2022-10-17T11:48:02.391Z,14.42
2022-10-17T11:49:19.181Z,8.21
2022-10-17T11:53:57.176Z,6.00
2022-10-17T11:56:19.518Z,6.11
2022-10-17T11:57:48.421Z,5.75
2022-10-17T11:58:54.589Z,8.37
2022-10-17T12:00:20.350Z,11.72
2022-10-17T12:01:40.277Z,5.81
2022-10-17T12:02:48.877Z,8.29
2022-10-17T12:03:57.414Z,6.68
2022-10-17T12:05:03.164Z,7.09
2022-10-17T12:06:29.566Z,8.23
2022-10-17T12:08:59.013Z,6.94
2022-10-17T12:10:38.534Z,6.14
2022-10-17T12:11:50.607Z,8.28
2022-10-17T12:12:52.647Z,5.62
2022-10-17T12:13:55.759Z,6.86
2022-10-17T12:15:18.268Z,6.56
2022-10-17T12:16:24.077Z,8.37
2022-10-17T12:17:36.615Z,6.36
2022-10-17T12:18:38.789Z,7.87
2022-10-17T12:19:40.908Z,5.45
2022-10-17T12:20:43.093Z,6.98
2022-10-17T12:22:00.699Z,9.09
2022-10-17T12:23:12.383Z,6.59
2022-10-17T12:24:26.700Z,7.55
2022-10-17T12:27:44.315Z,6.96
2022-10-17T12:28:47.575Z,6.95
2022-10-17T12:29:51.992Z,7.31
2022-10-17T12:31:03.374Z,7.49
2022-10-17T12:32:12.210Z,13.26
2022-10-17T12:33:20.728Z,7.69
2022-10-17T12:34:23.869Z,7.02
2022-10-17T12:35:27.346Z,9.40
2022-10-17T12:36:34.572Z,5.83
2022-10-17T12:37:52.974Z,5.89
2022-10-17T12:39:05.170Z,6.86
2022-10-17T12:40:37.646Z,5.82
2022-10-17T12:41:44.639Z,6.32
2022-10-17T12:42:49.400Z,6.76
2022-10-17T12:43:53.131Z,8.47
2022-10-17T12:44:55.179Z,7.02
2022-10-17T12:45:58.942Z,8.14
2022-10-17T12:47:10.544Z,6.02
2022-10-17T12:48:34.465Z,5.87
2022-10-17T12:49:42.873Z,6.00
2022-10-17T12:51:30.859Z,7.04
2022-10-17T12:52:18.463Z,4.58
2022-10-17T12:53:24.484Z,5.77
2022-10-17T12:54:31.402Z,6.30
2022-10-17T12:55:34.328Z,6.44
2022-10-17T12:56:40.105Z,5.85
2022-10-17T12:57:58.679Z,9.75
2022-10-17T12:59:02.836Z,14.12
2022-10-17T13:00:25.418Z,7.98
2022-10-17T13:01:31.170Z,8.66
2022-10-17T13:02:33.720Z,10.89
2022-10-17T13:03:40.503Z,12.29
2022-10-17T13:04:42.702Z,8.74
2022-10-17T13:05:48.904Z,7.45
2022-10-17T13:06:54.296Z,7.72
2022-10-17T13:07:59.974Z,6.38
2022-10-17T13:09:05.667Z,5.40
2022-10-17T13:10:24.312Z,7.96
2022-10-17T13:11:29.489Z,12.59
2022-10-17T13:12:38.922Z,8.20
2022-10-17T13:13:48.867Z,8.83
2022-10-17T13:14:53.207Z,7.63
2022-10-17T13:15:55.250Z,11.09
2022-10-17T13:17:02.757Z,7.97
2022-10-17T13:18:08.294Z,12.32
2022-10-17T13:19:17.375Z,7.34
2022-10-17T13:20:25.454Z,8.83
2022-10-17T13:21:27.401Z,8.43
2022-10-17T13:22:32.786Z,6.93
2022-10-17T13:23:37.210Z,8.12
2022-10-17T13:24:40.575Z,12.16
2022-10-17T13:25:42.481Z,13.10
2022-10-17T13:26:45.430Z,8.86
2022-10-17T13:27:48.984Z,10.70
2022-10-17T13:29:12.977Z,9.11
2022-10-17T13:30:32.266Z,9.98
2022-10-17T13:31:38.977Z,9.11
2022-10-17T13:32:42.788Z,7.02
2022-10-17T13:33:44.679Z,15.88
2022-10-17T13:34:50.296Z,12.34
2022-10-17T13:35:59.893Z,12.81
2022-10-17T13:37:02.784Z,10.29
2022-10-17T13:38:06.027Z,6.91
2022-10-17T13:39:13.130Z,8.37
2022-10-17T13:40:40.831Z,8.27
2022-10-17T13:41:36.279Z,6.41
2022-10-17T13:42:39.779Z,7.47
2022-10-17T13:43:44.369Z,10.86
2022-10-17T13:46:19.147Z,11.59
2022-10-17T13:47:14.013Z,12.31
2022-10-17T13:48:28.039Z,10.75
2022-10-17T13:49:39.977Z,10.92
2022-10-17T13:50:45.960Z,43.64
2022-10-17T13:51:52.445Z,13.75
2022-10-17T13:53:21.315Z,6.47
2022-10-17T13:54:32.702Z,6.12
2022-10-17T13:56:36.775Z,11.07
2022-10-17T13:57:38.658Z,13.99
2022-10-17T13:58:50.147Z,8.06
2022-10-17T14:01:03.516Z,12.12
2022-10-17T14:02:18.551Z,12.15
2022-10-17T14:03:21.781Z,8.16
2022-10-17T14:04:24.080Z,7.99
2022-10-17T14:05:26.422Z,7.21
2022-10-17T14:06:30.629Z,13.50
2022-10-17T14:08:16.797Z,7.61
2022-10-17T14:09:07.080Z,6.17
2022-10-17T14:10:25.031Z,8.55
2022-10-17T14:11:36.429Z,7.88
2022-10-17T14:12:42.149Z,8.58
2022-10-17T14:13:47.831Z,7.62
2022-10-17T14:15:09.663Z,8.73
2022-10-17T14:16:00.411Z,8.58
2022-10-17T14:17:02.498Z,9.76
2022-10-17T14:18:10.448Z,10.39
2022-10-17T14:19:31.236Z,7.47
2022-10-17T14:21:28.687Z,7.74
2022-10-17T14:21:48.103Z,6.52
2022-10-17T14:23:04.458Z,12.04
2022-10-17T14:24:17.698Z,7.07
2022-10-17T14:25:38.080Z,5.73
2022-10-17T14:26:48.594Z,9.51
2022-10-17T14:27:56.490Z,8.39
2022-10-17T14:29:04.788Z,7.93
2022-10-17T14:30:55.198Z,11.23
2022-10-17T14:31:37.050Z,9.89
2022-10-17T14:32:42.295Z,8.48
2022-10-17T14:33:50.666Z,12.43
2022-10-17T14:35:00.691Z,10.47
2022-10-17T14:36:01.164Z,11.44
2022-10-17T14:37:09.449Z,9.16
2022-10-17T14:38:12.830Z,7.17
2022-10-17T14:39:21.435Z,7.08
2022-10-17T14:40:25.789Z,11.72
2022-10-17T14:41:42.321Z,8.50
2022-10-17T14:42:39.089Z,8.77
2022-10-17T14:43:41.545Z,14.79
2022-10-17T14:44:47.427Z,14.83
2022-10-17T14:45:49.659Z,11.04
2022-10-17T14:48:17.586Z,10.41
2022-10-17T14:49:24.798Z,11.64
2022-10-17T14:50:29.839Z,10.89
2022-10-17T14:51:40.094Z,10.64
2022-10-17T14:52:36.502Z,18.75
2022-10-17T14:53:39.978Z,13.37
2022-10-17T14:54:47.292Z,26.10
2022-10-17T14:55:58.517Z,17.67
2022-10-17T14:58:18.416Z,15.64
2022-10-17T14:59:35.471Z,14.31
2022-10-17T15:00:25.769Z,17.43
2022-10-17T15:01:28.166Z,14.50
2022-10-17T15:02:30.755Z,19.91
2022-10-17T15:03:33.098Z,19.13